sensor_id;sensor_type;location;lat;lon;timestamp;temperature;humidity
66708;DHT22;53622;0.000;0.000;2022-12-07T00:01:50;18.30;50.10
66708;DHT22;53622;0.000;0.000;2022-12-07T00:04:19;18.20;50.10
66708;DHT22;53622;0.000;0.000;2022-12-07T00:06:51;18.20;50.10
66708;DHT22;53622;0.000;0.000;2022-12-07T00:09:22;18.20;50.10
66708;DHT22;53622;0.000;0.000;2022-12-07T00:11:52;18.20;50.00
66708;DHT22;53622;0.000;0.000;2022-12-07T00:14:21;18.20;50.10
66708;DHT22;53622;0.000;0.000;2022-12-07T00:16:51;18.20;50.00
66708;DHT22;53622;0.000;0.000;2022-12-07T00:19:21;18.20;50.00
66708;DHT22;53622;0.000;0.000;2022-12-07T00:21:50;18.20;50.00
66708;DHT22;53622;0.000;0.000;2022-12-07T00:24:19;18.20;50.10
66708;DHT22;53622;0.000;0.000;2022-12-07T00:26:50;18.10;50.00
66708;DHT22;53622;0.000;0.000;2022-12-07T00:29:20;18.10;50.00
66708;DHT22;53622;0.000;0.000;2022-12-07T00:31:51;18.10;50.00
66708;DHT22;53622;0.000;0.000;2022-12-07T00:34:21;18.10;49.90
66708;DHT22;53622;0.000;0.000;2022-12-07T00:36:51;18.10;49.90
66708;DHT22;53622;0.000;0.000;2022-12-07T00:39:20;18.10;50.00
66708;DHT22;53622;0.000;0.000;2022-12-07T00:41:51;18.10;49.90
66708;DHT22;53622;0.000;0.000;2022-12-07T00:44:20;18.10;49.90
66708;DHT22;53622;0.000;0.000;2022-12-07T00:46:49;18.10;50.00
66708;DHT22;53622;0.000;0.000;2022-12-07T00:49:18;18.00;49.90
66708;DHT22;53622;0.000;0.000;2022-12-07T00:51:48;18.10;50.00
66708;DHT22;53622;0.000;0.000;2022-12-07T00:54:17;18.00;49.90
66708;DHT22;53622;0.000;0.000;2022-12-07T00:56:47;18.00;49.80
66708;DHT22;53622;0.000;0.000;2022-12-07T00:59:17;18.00;49.90
66708;DHT22;53622;0.000;0.000;2022-12-07T01:01:46;18.00;49.90
66708;DHT22;53622;0.000;0.000;2022-12-07T01:04:16;18.00;49.90
66708;DHT22;53622;0.000;0.000;2022-12-07T01:06:45;18.00;49.90
66708;DHT22;53622;0.000;0.000;2022-12-07T01:09:15;18.00;49.90
66708;DHT22;53622;0.000;0.000;2022-12-07T01:11:44;18.00;49.90
66708;DHT22;53622;0.000;0.000;2022-12-07T01:14:13;17.90;49.90
66708;DHT22;53622;0.000;0.000;2022-12-07T01:16:44;17.90;49.80
66708;DHT22;53622;0.000;0.000;2022-12-07T01:19:13;17.90;49.90
66708;DHT22;53622;0.000;0.000;2022-12-07T01:21:42;17.90;49.80
66708;DHT22;53622;0.000;0.000;2022-12-07T01:24:12;17.90;49.90
66708;DHT22;53622;0.000;0.000;2022-12-07T01:26:41;17.90;49.90
66708;DHT22;53622;0.000;0.000;2022-12-07T01:29:10;17.90;49.90
66708;DHT22;53622;0.000;0.000;2022-12-07T01:31:39;17.90;49.90
66708;DHT22;53622;0.000;0.000;2022-12-07T01:34:10;17.90;49.90
66708;DHT22;53622;0.000;0.000;2022-12-07T01:36:39;17.90;49.90
66708;DHT22;53622;0.000;0.000;2022-12-07T01:39:09;17.80;49.90
66708;DHT22;53622;0.000;0.000;2022-12-07T01:41:40;17.80;49.90
66708;DHT22;53622;0.000;0.000;2022-12-07T01:44:17;17.80;49.90
66708;DHT22;53622;0.000;0.000;2022-12-07T01:46:48;17.80;49.90
66708;DHT22;53622;0.000;0.000;2022-12-07T01:49:29;17.80;49.90
66708;DHT22;53622;0.000;0.000;2022-12-07T01:52:13;17.80;49.90
66708;DHT22;53622;0.000;0.000;2022-12-07T01:54:45;17.80;49.90
66708;DHT22;53622;0.000;0.000;2022-12-07T01:57:16;17.80;50.00
66708;DHT22;53622;0.000;0.000;2022-12-07T01:59:47;17.80;50.00
66708;DHT22;53622;0.000;0.000;2022-12-07T02:02:20;17.70;49.90
66708;DHT22;53622;0.000;0.000;2022-12-07T02:04:54;17.70;49.90
66708;DHT22;53622;0.000;0.000;2022-12-07T02:07:25;17.70;50.00
66708;DHT22;53622;0.000;0.000;2022-12-07T02:09:55;17.70;50.00
66708;DHT22;53622;0.000;0.000;2022-12-07T02:12:25;17.70;50.00
66708;DHT22;53622;0.000;0.000;2022-12-07T02:14:54;17.70;50.00
66708;DHT22;53622;0.000;0.000;2022-12-07T02:17:30;17.70;50.00
66708;DHT22;53622;0.000;0.000;2022-12-07T02:20:11;17.70;50.00
66708;DHT22;53622;0.000;0.000;2022-12-07T02:23:21;17.70;50.00
66708;DHT22;53622;0.000;0.000;2022-12-07T02:26:08;17.70;50.00
66708;DHT22;53622;0.000;0.000;2022-12-07T02:29:10;17.60;50.00
66708;DHT22;53622;0.000;0.000;2022-12-07T02:31:45;17.60;50.00
66708;DHT22;53622;0.000;0.000;2022-12-07T02:34:21;17.60;50.00
66708;DHT22;53622;0.000;0.000;2022-12-07T02:36:57;17.60;50.00
66708;DHT22;53622;0.000;0.000;2022-12-07T02:39:32;17.60;50.00
66708;DHT22;53622;0.000;0.000;2022-12-07T02:42:12;17.60;50.10
66708;DHT22;53622;0.000;0.000;2022-12-07T02:44:45;17.60;50.10
66708;DHT22;53622;0.000;0.000;2022-12-07T02:47:17;17.60;50.10
66708;DHT22;53622;0.000;0.000;2022-12-07T02:49:47;17.60;50.00
66708;DHT22;53622;0.000;0.000;2022-12-07T02:52:18;17.60;50.10
66708;DHT22;53622;0.000;0.000;2022-12-07T02:54:47;17.60;50.10
66708;DHT22;53622;0.000;0.000;2022-12-07T02:57:28;17.50;50.10
66708;DHT22;53622;0.000;0.000;2022-12-07T03:00:06;17.60;50.20
66708;DHT22;53622;0.000;0.000;2022-12-07T03:02:46;17.60;50.10
66708;DHT22;53622;0.000;0.000;2022-12-07T03:08:38;17.50;50.10
66708;DHT22;53622;0.000;0.000;2022-12-07T03:11:14;17.50;50.10
66708;DHT22;53622;0.000;0.000;2022-12-07T03:13:53;17.50;50.20
66708;DHT22;53622;0.000;0.000;2022-12-07T03:16:28;17.50;50.10
66708;DHT22;53622;0.000;0.000;2022-12-07T03:19:02;17.50;50.10
66708;DHT22;53622;0.000;0.000;2022-12-07T03:21:36;17.50;50.10
66708;DHT22;53622;0.000;0.000;2022-12-07T03:24:10;17.40;50.00
66708;DHT22;53622;0.000;0.000;2022-12-07T03:26:42;17.40;50.10
66708;DHT22;53622;0.000;0.000;2022-12-07T03:29:16;17.40;50.10
66708;DHT22;53622;0.000;0.000;2022-12-07T03:31:51;17.50;50.10
66708;DHT22;53622;0.000;0.000;2022-12-07T03:34:27;17.40;50.10
66708;DHT22;53622;0.000;0.000;2022-12-07T03:37:02;17.40;50.20
66708;DHT22;53622;0.000;0.000;2022-12-07T03:39:36;17.40;50.10
66708;DHT22;53622;0.000;0.000;2022-12-07T03:42:09;17.40;50.20
66708;DHT22;53622;0.000;0.000;2022-12-07T03:44:39;17.40;50.20
66708;DHT22;53622;0.000;0.000;2022-12-07T03:47:13;17.40;50.10
66708;DHT22;53622;0.000;0.000;2022-12-07T03:49:48;17.40;50.10
66708;DHT22;53622;0.000;0.000;2022-12-07T03:52:24;17.40;50.00
66708;DHT22;53622;0.000;0.000;2022-12-07T03:54:57;17.40;50.20
66708;DHT22;53622;0.000;0.000;2022-12-07T03:57:29;17.40;50.10
66708;DHT22;53622;0.000;0.000;2022-12-07T03:59:59;17.40;50.20
66708;DHT22;53622;0.000;0.000;2022-12-07T04:02:41;17.40;50.10
66708;DHT22;53622;0.000;0.000;2022-12-07T04:05:10;17.40;50.10
66708;DHT22;53622;0.000;0.000;2022-12-07T04:07:40;17.40;50.20
66708;DHT22;53622;0.000;0.000;2022-12-07T04:10:10;17.40;50.20
66708;DHT22;53622;0.000;0.000;2022-12-07T04:12:40;17.40;50.10
66708;DHT22;53622;0.000;0.000;2022-12-07T04:15:10;17.30;50.10
66708;DHT22;53622;0.000;0.000;2022-12-07T04:17:40;17.30;50.10
66708;DHT22;53622;0.000;0.000;2022-12-07T04:20:11;17.40;50.10
66708;DHT22;53622;0.000;0.000;2022-12-07T04:22:40;17.30;50.20
66708;DHT22;53622;0.000;0.000;2022-12-07T04:25:09;17.30;50.10
66708;DHT22;53622;0.000;0.000;2022-12-07T04:27:39;17.30;50.20
66708;DHT22;53622;0.000;0.000;2022-12-07T04:30:08;17.30;50.10
66708;DHT22;53622;0.000;0.000;2022-12-07T04:32:39;17.30;50.10
66708;DHT22;53622;0.000;0.000;2022-12-07T04:35:09;17.30;50.20
66708;DHT22;53622;0.000;0.000;2022-12-07T04:37:38;17.30;50.20
66708;DHT22;53622;0.000;0.000;2022-12-07T04:40:08;17.30;50.20
66708;DHT22;53622;0.000;0.000;2022-12-07T04:42:39;17.30;50.10
66708;DHT22;53622;0.000;0.000;2022-12-07T04:45:09;17.30;50.20
66708;DHT22;53622;0.000;0.000;2022-12-07T04:47:39;17.30;50.20
66708;DHT22;53622;0.000;0.000;2022-12-07T04:50:10;17.30;50.20
66708;DHT22;53622;0.000;0.000;2022-12-07T04:52:39;17.30;50.20
66708;DHT22;53622;0.000;0.000;2022-12-07T04:55:09;17.30;50.20
66708;DHT22;53622;0.000;0.000;2022-12-07T04:57:38;17.30;50.20
66708;DHT22;53622;0.000;0.000;2022-12-07T05:00:08;17.30;50.20
66708;DHT22;53622;0.000;0.000;2022-12-07T05:02:37;17.20;50.20
66708;DHT22;53622;0.000;0.000;2022-12-07T05:05:08;17.20;50.20
66708;DHT22;53622;0.000;0.000;2022-12-07T05:07:38;17.20;50.20
66708;DHT22;53622;0.000;0.000;2022-12-07T05:10:08;17.20;50.20
66708;DHT22;53622;0.000;0.000;2022-12-07T05:12:37;17.20;50.20
66708;DHT22;53622;0.000;0.000;2022-12-07T05:15:07;17.20;50.20
66708;DHT22;53622;0.000;0.000;2022-12-07T05:17:37;17.20;50.20
66708;DHT22;53622;0.000;0.000;2022-12-07T05:20:09;17.20;50.20
66708;DHT22;53622;0.000;0.000;2022-12-07T05:22:38;17.20;50.20
66708;DHT22;53622;0.000;0.000;2022-12-07T05:25:08;17.20;50.50
66708;DHT22;53622;0.000;0.000;2022-12-07T05:27:38;17.10;50.60
66708;DHT22;53622;0.000;0.000;2022-12-07T05:30:08;17.10;50.60
66708;DHT22;53622;0.000;0.000;2022-12-07T05:32:37;17.10;50.80
66708;DHT22;53622;0.000;0.000;2022-12-07T05:35:09;17.10;50.90
66708;DHT22;53622;0.000;0.000;2022-12-07T05:37:38;17.10;51.10
66708;DHT22;53622;0.000;0.000;2022-12-07T05:40:09;17.10;50.90
66708;DHT22;53622;0.000;0.000;2022-12-07T05:42:39;17.20;51.00
66708;DHT22;53622;0.000;0.000;2022-12-07T05:45:09;17.20;51.00
66708;DHT22;53622;0.000;0.000;2022-12-07T05:47:39;17.10;51.20
66708;DHT22;53622;0.000;0.000;2022-12-07T05:50:09;17.20;51.40
66708;DHT22;53622;0.000;0.000;2022-12-07T05:52:39;17.20;51.10
66708;DHT22;53622;0.000;0.000;2022-12-07T05:55:08;17.20;51.40
66708;DHT22;53622;0.000;0.000;2022-12-07T05:57:38;17.20;51.60
66708;DHT22;53622;0.000;0.000;2022-12-07T06:00:08;17.20;51.90
66708;DHT22;53622;0.000;0.000;2022-12-07T06:02:38;17.30;52.10
66708;DHT22;53622;0.000;0.000;2022-12-07T06:05:09;17.40;52.40
66708;DHT22;53622;0.000;0.000;2022-12-07T06:07:39;17.40;52.60
66708;DHT22;53622;0.000;0.000;2022-12-07T06:10:09;17.40;52.70
66708;DHT22;53622;0.000;0.000;2022-12-07T06:12:39;17.50;52.40
66708;DHT22;53622;0.000;0.000;2022-12-07T06:15:10;17.60;52.70
66708;DHT22;53622;0.000;0.000;2022-12-07T06:17:41;17.60;52.70
66708;DHT22;53622;0.000;0.000;2022-12-07T06:20:11;17.70;52.90
66708;DHT22;53622;0.000;0.000;2022-12-07T06:22:41;17.70;52.80
66708;DHT22;53622;0.000;0.000;2022-12-07T06:25:10;17.70;52.90
66708;DHT22;53622;0.000;0.000;2022-12-07T06:27:39;17.80;52.70
66708;DHT22;53622;0.000;0.000;2022-12-07T06:30:09;17.90;52.60
66708;DHT22;53622;0.000;0.000;2022-12-07T06:32:38;17.90;52.40
66708;DHT22;53622;0.000;0.000;2022-12-07T06:35:08;17.90;52.20
66708;DHT22;53622;0.000;0.000;2022-12-07T06:37:39;17.90;51.40
66708;DHT22;53622;0.000;0.000;2022-12-07T06:40:09;17.90;52.10
66708;DHT22;53622;0.000;0.000;2022-12-07T06:42:38;18.00;52.10
66708;DHT22;53622;0.000;0.000;2022-12-07T06:45:09;18.00;52.10
66708;DHT22;53622;0.000;0.000;2022-12-07T06:47:38;18.00;52.00
66708;DHT22;53622;0.000;0.000;2022-12-07T06:50:14;18.10;52.00
66708;DHT22;53622;0.000;0.000;2022-12-07T06:52:44;18.10;52.00
66708;DHT22;53622;0.000;0.000;2022-12-07T06:55:14;18.10;52.00
66708;DHT22;53622;0.000;0.000;2022-12-07T06:57:43;18.20;52.00
66708;DHT22;53622;0.000;0.000;2022-12-07T07:00:14;18.20;52.00
66708;DHT22;53622;0.000;0.000;2022-12-07T07:02:48;18.20;51.90
66708;DHT22;53622;0.000;0.000;2022-12-07T07:05:18;18.20;51.90
66708;DHT22;53622;0.000;0.000;2022-12-07T07:07:50;18.20;51.90
66708;DHT22;53622;0.000;0.000;2022-12-07T07:10:40;18.20;51.80
66708;DHT22;53622;0.000;0.000;2022-12-07T07:13:10;18.20;51.80
66708;DHT22;53622;0.000;0.000;2022-12-07T07:15:39;18.20;51.70
66708;DHT22;53622;0.000;0.000;2022-12-07T07:18:08;18.20;51.70
66708;DHT22;53622;0.000;0.000;2022-12-07T07:20:38;18.20;51.70
66708;DHT22;53622;0.000;0.000;2022-12-07T07:23:09;18.20;51.70
66708;DHT22;53622;0.000;0.000;2022-12-07T07:25:38;18.30;51.70
66708;DHT22;53622;0.000;0.000;2022-12-07T07:28:08;18.30;51.60
66708;DHT22;53622;0.000;0.000;2022-12-07T07:30:37;18.30;51.60
66708;DHT22;53622;0.000;0.000;2022-12-07T07:33:06;18.30;51.50
66708;DHT22;53622;0.000;0.000;2022-12-07T07:35:36;18.30;51.70
66708;DHT22;53622;0.000;0.000;2022-12-07T07:38:07;18.30;51.30
66708;DHT22;53622;0.000;0.000;2022-12-07T07:40:38;18.30;51.10
66708;DHT22;53622;0.000;0.000;2022-12-07T07:43:07;18.30;51.10
66708;DHT22;53622;0.000;0.000;2022-12-07T07:45:36;18.30;51.20
66708;DHT22;53622;0.000;0.000;2022-12-07T07:48:06;18.30;51.20
66708;DHT22;53622;0.000;0.000;2022-12-07T07:50:35;18.30;51.30
66708;DHT22;53622;0.000;0.000;2022-12-07T07:53:05;18.40;51.40
66708;DHT22;53622;0.000;0.000;2022-12-07T07:55:34;18.30;51.30
66708;DHT22;53622;0.000;0.000;2022-12-07T07:58:05;18.40;51.30
66708;DHT22;53622;0.000;0.000;2022-12-07T08:00:34;18.40;51.20
66708;DHT22;53622;0.000;0.000;2022-12-07T08:03:03;18.40;51.20
66708;DHT22;53622;0.000;0.000;2022-12-07T08:05:33;18.40;51.20
66708;DHT22;53622;0.000;0.000;2022-12-07T08:08:03;18.40;51.20
66708;DHT22;53622;0.000;0.000;2022-12-07T08:10:32;18.50;51.40
66708;DHT22;53622;0.000;0.000;2022-12-07T08:13:04;18.50;51.20
66708;DHT22;53622;0.000;0.000;2022-12-07T08:15:44;18.50;51.30
66708;DHT22;53622;0.000;0.000;2022-12-07T08:18:14;18.60;51.10
66708;DHT22;53622;0.000;0.000;2022-12-07T08:20:44;18.60;51.10
66708;DHT22;53622;0.000;0.000;2022-12-07T08:23:13;18.60;51.10
66708;DHT22;53622;0.000;0.000;2022-12-07T08:25:42;18.60;51.00
66708;DHT22;53622;0.000;0.000;2022-12-07T08:28:13;18.60;51.00
66708;DHT22;53622;0.000;0.000;2022-12-07T08:30:43;18.70;51.00
66708;DHT22;53622;0.000;0.000;2022-12-07T08:33:12;18.70;51.00
66708;DHT22;53622;0.000;0.000;2022-12-07T08:35:42;18.70;50.90
66708;DHT22;53622;0.000;0.000;2022-12-07T08:38:11;18.70;50.90
66708;DHT22;53622;0.000;0.000;2022-12-07T08:40:40;18.80;50.90
66708;DHT22;53622;0.000;0.000;2022-12-07T08:43:10;18.70;50.80
66708;DHT22;53622;0.000;0.000;2022-12-07T08:45:41;18.70;50.80
66708;DHT22;53622;0.000;0.000;2022-12-07T08:48:12;18.80;50.80
66708;DHT22;53622;0.000;0.000;2022-12-07T08:50:45;18.80;50.70
66708;DHT22;53622;0.000;0.000;2022-12-07T08:53:17;18.80;51.30
66708;DHT22;53622;0.000;0.000;2022-12-07T08:55:47;18.80;50.70
66708;DHT22;53622;0.000;0.000;2022-12-07T08:58:17;18.80;50.50
66708;DHT22;53622;0.000;0.000;2022-12-07T09:00:48;18.90;50.60
66708;DHT22;53622;0.000;0.000;2022-12-07T09:03:17;18.90;50.60
66708;DHT22;53622;0.000;0.000;2022-12-07T09:05:48;18.90;50.60
66708;DHT22;53622;0.000;0.000;2022-12-07T09:08:17;18.90;50.60
66708;DHT22;53622;0.000;0.000;2022-12-07T09:10:47;18.90;50.50
66708;DHT22;53622;0.000;0.000;2022-12-07T09:13:16;18.90;50.60
66708;DHT22;53622;0.000;0.000;2022-12-07T09:15:45;18.90;51.10
66708;DHT22;53622;0.000;0.000;2022-12-07T09:18:16;18.90;50.50
66708;DHT22;53622;0.000;0.000;2022-12-07T09:20:46;18.90;50.50
66708;DHT22;53622;0.000;0.000;2022-12-07T09:23:15;18.90;50.50
66708;DHT22;53622;0.000;0.000;2022-12-07T09:25:44;18.90;50.40
66708;DHT22;53622;0.000;0.000;2022-12-07T09:28:14;18.90;50.40
66708;DHT22;53622;0.000;0.000;2022-12-07T09:30:45;19.00;50.40
66708;DHT22;53622;0.000;0.000;2022-12-07T09:33:37;18.90;50.30
66708;DHT22;53622;0.000;0.000;2022-12-07T09:36:07;18.90;50.30
66708;DHT22;53622;0.000;0.000;2022-12-07T09:38:37;18.90;50.20
66708;DHT22;53622;0.000;0.000;2022-12-07T09:41:07;18.90;50.20
66708;DHT22;53622;0.000;0.000;2022-12-07T09:43:37;18.90;50.40
66708;DHT22;53622;0.000;0.000;2022-12-07T09:46:13;18.90;50.40
66708;DHT22;53622;0.000;0.000;2022-12-07T09:48:45;18.90;50.40
66708;DHT22;53622;0.000;0.000;2022-12-07T09:51:17;19.00;50.40
66708;DHT22;53622;0.000;0.000;2022-12-07T09:53:53;19.00;50.40
66708;DHT22;53622;0.000;0.000;2022-12-07T09:56:24;18.90;50.40
66708;DHT22;53622;0.000;0.000;2022-12-07T09:58:58;18.90;50.30
66708;DHT22;53622;0.000;0.000;2022-12-07T10:01:30;18.90;50.30
66708;DHT22;53622;0.000;0.000;2022-12-07T10:04:10;18.90;50.30
66708;DHT22;53622;0.000;0.000;2022-12-07T10:06:41;18.90;50.20
66708;DHT22;53622;0.000;0.000;2022-12-07T10:09:11;18.90;50.20
66708;DHT22;53622;0.000;0.000;2022-12-07T10:12:05;18.90;50.30
66708;DHT22;53622;0.000;0.000;2022-12-07T10:14:36;18.90;50.40
66708;DHT22;53622;0.000;0.000;2022-12-07T10:17:33;18.90;50.20
66708;DHT22;53622;0.000;0.000;2022-12-07T10:20:17;18.90;50.20
66708;DHT22;53622;0.000;0.000;2022-12-07T10:23:01;19.00;50.10
66708;DHT22;53622;0.000;0.000;2022-12-07T10:25:32;18.90;50.00
66708;DHT22;53622;0.000;0.000;2022-12-07T10:28:14;18.90;49.90
66708;DHT22;53622;0.000;0.000;2022-12-07T10:31:13;18.90;50.00
66708;DHT22;53622;0.000;0.000;2022-12-07T10:33:50;19.00;50.00
66708;DHT22;53622;0.000;0.000;2022-12-07T10:36:24;18.90;50.10
66708;DHT22;53622;0.000;0.000;2022-12-07T10:39:00;18.90;50.10
66708;DHT22;53622;0.000;0.000;2022-12-07T10:41:31;18.90;50.10
66708;DHT22;53622;0.000;0.000;2022-12-07T10:44:00;18.90;50.20
66708;DHT22;53622;0.000;0.000;2022-12-07T10:46:55;19.00;50.30
66708;DHT22;53622;0.000;0.000;2022-12-07T10:50:05;19.00;50.30
66708;DHT22;53622;0.000;0.000;2022-12-07T10:53:05;19.00;50.30
66708;DHT22;53622;0.000;0.000;2022-12-07T10:55:50;19.00;50.30
66708;DHT22;53622;0.000;0.000;2022-12-07T10:58:42;19.00;50.30
66708;DHT22;53622;0.000;0.000;2022-12-07T11:01:24;19.10;50.30
66708;DHT22;53622;0.000;0.000;2022-12-07T11:04:18;19.10;50.30
66708;DHT22;53622;0.000;0.000;2022-12-07T11:06:54;19.10;50.20
66708;DHT22;53622;0.000;0.000;2022-12-07T11:09:57;19.10;50.20
66708;DHT22;53622;0.000;0.000;2022-12-07T11:12:47;19.10;50.20
66708;DHT22;53622;0.000;0.000;2022-12-07T11:15:24;19.10;50.10
66708;DHT22;53622;0.000;0.000;2022-12-07T11:18:01;19.10;50.10
66708;DHT22;53622;0.000;0.000;2022-12-07T11:20:39;19.10;50.10
66708;DHT22;53622;0.000;0.000;2022-12-07T11:23:20;19.20;50.10
66708;DHT22;53622;0.000;0.000;2022-12-07T11:26:01;19.10;50.10
66708;DHT22;53622;0.000;0.000;2022-12-07T11:28:44;19.20;50.00
66708;DHT22;53622;0.000;0.000;2022-12-07T11:31:27;19.20;50.20
66708;DHT22;53622;0.000;0.000;2022-12-07T11:34:03;19.20;49.80
66708;DHT22;53622;0.000;0.000;2022-12-07T11:36:38;19.20;50.00
66708;DHT22;53622;0.000;0.000;2022-12-07T11:39:19;19.20;49.80
66708;DHT22;53622;0.000;0.000;2022-12-07T11:41:54;19.20;50.00
66708;DHT22;53622;0.000;0.000;2022-12-07T11:44:30;19.20;49.80
66708;DHT22;53622;0.000;0.000;2022-12-07T11:47:07;19.20;50.00
66708;DHT22;53622;0.000;0.000;2022-12-07T11:49:43;19.20;49.90
66708;DHT22;53622;0.000;0.000;2022-12-07T11:52:20;19.20;49.80
66708;DHT22;53622;0.000;0.000;2022-12-07T11:54:52;19.30;49.90
66708;DHT22;53622;0.000;0.000;2022-12-07T11:57:28;19.20;49.80
66708;DHT22;53622;0.000;0.000;2022-12-07T12:00:04;19.20;49.80
66708;DHT22;53622;0.000;0.000;2022-12-07T12:02:39;19.20;49.80
66708;DHT22;53622;0.000;0.000;2022-12-07T12:05:16;19.20;49.90
66708;DHT22;53622;0.000;0.000;2022-12-07T12:07:49;19.30;49.70
66708;DHT22;53622;0.000;0.000;2022-12-07T12:10:52;19.20;49.80
66708;DHT22;53622;0.000;0.000;2022-12-07T12:17:21;19.20;49.80
66708;DHT22;53622;0.000;0.000;2022-12-07T12:20:01;19.30;49.80
66708;DHT22;53622;0.000;0.000;2022-12-07T12:22:36;19.30;49.80
66708;DHT22;53622;0.000;0.000;2022-12-07T12:25:21;19.30;49.80
66708;DHT22;53622;0.000;0.000;2022-12-07T12:27:54;19.30;49.80
66708;DHT22;53622;0.000;0.000;2022-12-07T12:30:32;19.40;49.80
66708;DHT22;53622;0.000;0.000;2022-12-07T12:33:04;19.40;49.80
66708;DHT22;53622;0.000;0.000;2022-12-07T12:35:36;19.40;49.80
66708;DHT22;53622;0.000;0.000;2022-12-07T12:38:31;19.40;49.80
66708;DHT22;53622;0.000;0.000;2022-12-07T12:41:01;19.40;50.30
66708;DHT22;53622;0.000;0.000;2022-12-07T12:43:45;19.40;49.70
66708;DHT22;53622;0.000;0.000;2022-12-07T12:46:47;19.40;49.60
66708;DHT22;53622;0.000;0.000;2022-12-07T12:49:43;19.50;49.60
66708;DHT22;53622;0.000;0.000;2022-12-07T12:58:35;19.50;49.50
66708;DHT22;53622;0.000;0.000;2022-12-07T13:07:13;19.50;49.50
66708;DHT22;53622;0.000;0.000;2022-12-07T13:09:44;19.50;49.60
66708;DHT22;53622;0.000;0.000;2022-12-07T13:12:15;19.50;49.40
66708;DHT22;53622;0.000;0.000;2022-12-07T13:14:57;19.50;49.50
66708;DHT22;53622;0.000;0.000;2022-12-07T13:17:56;19.50;49.40
66708;DHT22;53622;0.000;0.000;2022-12-07T13:20:46;19.50;49.30
66708;DHT22;53622;0.000;0.000;2022-12-07T13:23:29;19.40;49.20
66708;DHT22;53622;0.000;0.000;2022-12-07T13:26:09;19.40;49.20
66708;DHT22;53622;0.000;0.000;2022-12-07T13:28:47;19.40;49.20
66708;DHT22;53622;0.000;0.000;2022-12-07T13:31:26;19.40;49.20
66708;DHT22;53622;0.000;0.000;2022-12-07T13:33:59;19.30;49.10
66708;DHT22;53622;0.000;0.000;2022-12-07T13:36:32;19.30;49.10
66708;DHT22;53622;0.000;0.000;2022-12-07T13:39:19;19.30;49.10
66708;DHT22;53622;0.000;0.000;2022-12-07T13:41:51;19.30;49.30
66708;DHT22;53622;0.000;0.000;2022-12-07T13:44:22;19.30;49.20
66708;DHT22;53622;0.000;0.000;2022-12-07T13:47:03;19.20;49.00
66708;DHT22;53622;0.000;0.000;2022-12-07T13:49:38;19.20;49.00
66708;DHT22;53622;0.000;0.000;2022-12-07T13:52:16;19.30;49.00
66708;DHT22;53622;0.000;0.000;2022-12-07T13:54:48;19.20;49.00
66708;DHT22;53622;0.000;0.000;2022-12-07T13:57:18;19.20;49.00
66708;DHT22;53622;0.000;0.000;2022-12-07T13:59:47;19.20;49.00
66708;DHT22;53622;0.000;0.000;2022-12-07T14:02:21;19.20;49.10
66708;DHT22;53622;0.000;0.000;2022-12-07T14:04:51;19.20;49.10
66708;DHT22;53622;0.000;0.000;2022-12-07T14:07:24;19.20;49.20
66708;DHT22;53622;0.000;0.000;2022-12-07T14:09:56;19.20;49.20
66708;DHT22;53622;0.000;0.000;2022-12-07T14:12:27;19.20;49.20
66708;DHT22;53622;0.000;0.000;2022-12-07T14:14:59;19.20;49.30
66708;DHT22;53622;0.000;0.000;2022-12-07T14:17:30;19.20;49.20
66708;DHT22;53622;0.000;0.000;2022-12-07T14:20:01;19.20;49.20
66708;DHT22;53622;0.000;0.000;2022-12-07T14:22:35;19.20;49.20
66708;DHT22;53622;0.000;0.000;2022-12-07T14:25:19;19.20;49.20
66708;DHT22;53622;0.000;0.000;2022-12-07T14:27:52;19.20;49.20
66708;DHT22;53622;0.000;0.000;2022-12-07T14:30:25;19.20;49.20
66708;DHT22;53622;0.000;0.000;2022-12-07T14:32:58;19.20;49.20
66708;DHT22;53622;0.000;0.000;2022-12-07T14:35:28;19.20;49.20
66708;DHT22;53622;0.000;0.000;2022-12-07T14:38:00;19.20;49.20
66708;DHT22;53622;0.000;0.000;2022-12-07T14:40:30;19.30;49.20
66708;DHT22;53622;0.000;0.000;2022-12-07T14:43:01;19.30;49.20
66708;DHT22;53622;0.000;0.000;2022-12-07T14:45:31;19.30;49.20
66708;DHT22;53622;0.000;0.000;2022-12-07T14:48:00;19.30;49.20
66708;DHT22;53622;0.000;0.000;2022-12-07T14:50:52;19.30;49.20
66708;DHT22;53622;0.000;0.000;2022-12-07T14:53:45;19.30;49.20
66708;DHT22;53622;0.000;0.000;2022-12-07T14:56:22;19.30;49.20
66708;DHT22;53622;0.000;0.000;2022-12-07T14:58:51;19.30;49.20
66708;DHT22;53622;0.000;0.000;2022-12-07T15:01:20;19.30;49.20
66708;DHT22;53622;0.000;0.000;2022-12-07T15:03:50;19.30;49.20
66708;DHT22;53622;0.000;0.000;2022-12-07T15:06:19;19.30;49.20
66708;DHT22;53622;0.000;0.000;2022-12-07T15:08:50;19.30;49.10
66708;DHT22;53622;0.000;0.000;2022-12-07T15:11:19;19.30;49.10
66708;DHT22;53622;0.000;0.000;2022-12-07T15:13:50;19.30;49.10
66708;DHT22;53622;0.000;0.000;2022-12-07T15:16:41;19.30;49.10
66708;DHT22;53622;0.000;0.000;2022-12-07T15:19:30;19.30;49.10
66708;DHT22;53622;0.000;0.000;2022-12-07T15:21:59;19.30;49.30
66708;DHT22;53622;0.000;0.000;2022-12-07T15:24:30;19.30;49.10
66708;DHT22;53622;0.000;0.000;2022-12-07T15:27:00;19.30;49.10
66708;DHT22;53622;0.000;0.000;2022-12-07T15:29:29;19.30;49.10
66708;DHT22;53622;0.000;0.000;2022-12-07T15:31:58;19.30;49.20
66708;DHT22;53622;0.000;0.000;2022-12-07T15:34:28;19.30;49.20
66708;DHT22;53622;0.000;0.000;2022-12-07T15:37:07;19.30;49.20
66708;DHT22;53622;0.000;0.000;2022-12-07T15:39:38;19.30;49.20
66708;DHT22;53622;0.000;0.000;2022-12-07T15:42:07;19.30;49.30
66708;DHT22;53622;0.000;0.000;2022-12-07T15:44:37;19.30;49.20
66708;DHT22;53622;0.000;0.000;2022-12-07T15:47:23;19.30;49.20
66708;DHT22;53622;0.000;0.000;2022-12-07T15:49:52;19.30;49.20
66708;DHT22;53622;0.000;0.000;2022-12-07T15:52:25;19.30;49.20
66708;DHT22;53622;0.000;0.000;2022-12-07T15:54:56;19.30;49.20
66708;DHT22;53622;0.000;0.000;2022-12-07T15:57:25;19.30;49.20
66708;DHT22;53622;0.000;0.000;2022-12-07T15:59:55;19.30;49.30
66708;DHT22;53622;0.000;0.000;2022-12-07T16:02:24;19.30;49.30
66708;DHT22;53622;0.000;0.000;2022-12-07T16:04:54;19.40;49.30
66708;DHT22;53622;0.000;0.000;2022-12-07T16:07:23;19.40;49.40
66708;DHT22;53622;0.000;0.000;2022-12-07T16:09:52;19.40;49.50
66708;DHT22;53622;0.000;0.000;2022-12-07T16:12:23;19.40;49.40
66708;DHT22;53622;0.000;0.000;2022-12-07T16:14:53;19.50;49.40
66708;DHT22;53622;0.000;0.000;2022-12-07T16:17:22;19.50;49.40
66708;DHT22;53622;0.000;0.000;2022-12-07T16:19:51;19.50;49.40
66708;DHT22;53622;0.000;0.000;2022-12-07T16:22:21;19.50;49.50
66708;DHT22;53622;0.000;0.000;2022-12-07T16:24:51;19.50;49.60
66708;DHT22;53622;0.000;0.000;2022-12-07T16:27:22;19.60;49.70
66708;DHT22;53622;0.000;0.000;2022-12-07T16:29:52;19.60;49.70
66708;DHT22;53622;0.000;0.000;2022-12-07T16:32:21;19.60;49.70
66708;DHT22;53622;0.000;0.000;2022-12-07T16:34:51;19.70;49.90
66708;DHT22;53622;0.000;0.000;2022-12-07T16:37:20;19.70;49.90
66708;DHT22;53622;0.000;0.000;2022-12-07T16:39:49;19.70;49.80
66708;DHT22;53622;0.000;0.000;2022-12-07T16:42:19;19.70;49.80
66708;DHT22;53622;0.000;0.000;2022-12-07T16:44:50;19.70;49.80